createdAt,value
2022-07-26T00:01:52.601Z,4.93
2022-07-26T00:04:20.452Z,6.53
2022-07-26T00:06:47.881Z,6.90
2022-07-26T00:09:15.290Z,6.50
2022-07-26T00:11:42.930Z,6.82
2022-07-26T00:14:10.346Z,7.35
2022-07-26T00:16:38.345Z,5.70
2022-07-26T00:19:09.945Z,7.20
2022-07-26T00:21:40.745Z,6.15
2022-07-26T00:24:08.865Z,6.22
2022-07-26T00:26:36.270Z,6.95
2022-07-26T00:29:06.094Z,7.50
2022-07-26T00:31:34.235Z,9.82
2022-07-26T00:34:01.735Z,6.78
2022-07-26T00:36:29.825Z,7.57
2022-07-26T00:38:57.630Z,10.40
2022-07-26T00:41:25.096Z,6.50
2022-07-26T00:43:57.362Z,8.60
2022-07-26T00:46:25.203Z,7.30
2022-07-26T00:48:52.744Z,5.35
2022-07-26T00:51:21.032Z,6.45
2022-07-26T00:53:49.134Z,6.50
2022-07-26T00:56:16.939Z,8.60
2022-07-26T00:58:44.796Z,6.90
2022-07-26T01:01:12.571Z,5.43
2022-07-26T01:03:40.189Z,6.05
2022-07-26T01:06:07.676Z,7.28
2022-07-26T01:08:35.396Z,6.37
2022-07-26T01:11:02.890Z,8.95
2022-07-26T01:13:34.757Z,6.87
2022-07-26T01:16:03.659Z,5.57
2022-07-26T01:18:31.155Z,10.05
2022-07-26T01:21:00.897Z,5.85
2022-07-26T01:23:28.904Z,6.03
2022-07-26T01:25:59.625Z,7.55
2022-07-26T01:28:27.763Z,6.45
2022-07-26T01:30:55.694Z,8.57
2022-07-26T01:33:23.146Z,7.53
2022-07-26T01:35:50.836Z,7.12
2022-07-26T01:38:18.659Z,6.78
2022-07-26T01:40:46.068Z,6.12
2022-07-26T01:43:13.506Z,7.75
2022-07-26T01:45:41.250Z,11.12
2022-07-26T01:48:08.727Z,6.60
2022-07-26T01:50:36.929Z,6.32
2022-07-26T01:53:06.106Z,7.25
2022-07-26T01:55:34.327Z,6.45
2022-07-26T01:58:01.883Z,7.32
2022-07-26T02:00:29.617Z,6.57
2022-07-26T02:02:57.709Z,6.07
2022-07-26T02:05:25.261Z,6.60
2022-07-26T02:07:52.725Z,6.20
2022-07-26T02:10:20.836Z,5.62
2022-07-26T02:12:49.643Z,6.47
2022-07-26T02:15:17.210Z,6.90
2022-07-26T02:17:44.954Z,5.43
2022-07-26T02:20:12.979Z,6.50
2022-07-26T02:22:40.399Z,10.90
2022-07-26T02:25:08.237Z,8.60
2022-07-26T02:27:35.716Z,8.70
2022-07-26T02:30:03.608Z,6.00
2022-07-26T02:32:31.369Z,6.60
2022-07-26T02:34:58.746Z,7.20
2022-07-26T02:37:26.148Z,6.15
2022-07-26T02:39:53.922Z,7.15
2022-07-26T02:42:22.532Z,6.15
2022-07-26T02:44:50.000Z,7.65
2022-07-26T02:47:17.707Z,6.07
2022-07-26T02:49:45.099Z,6.15
2022-07-26T02:52:12.649Z,9.30
2022-07-26T02:54:40.293Z,4.25
2022-07-26T02:57:07.763Z,10.30
2022-07-26T02:59:35.160Z,5.15
2022-07-26T03:02:03.046Z,6.40
2022-07-26T03:04:30.498Z,5.43
2022-07-26T03:06:57.919Z,8.48
2022-07-26T03:09:25.692Z,8.68
2022-07-26T03:11:53.321Z,7.57
2022-07-26T03:14:20.716Z,13.35
2022-07-26T03:16:48.381Z,6.50
2022-07-26T03:19:15.777Z,5.68
2022-07-26T03:21:43.154Z,9.32
2022-07-26T03:24:11.137Z,9.68
2022-07-26T03:26:38.933Z,7.03
2022-07-26T03:29:06.433Z,8.50
2022-07-26T03:31:36.383Z,8.35
2022-07-26T03:34:04.402Z,7.18
2022-07-26T03:36:32.105Z,6.57
2022-07-26T03:39:00.518Z,8.32
2022-07-26T03:41:28.037Z,6.10
2022-07-26T03:43:55.460Z,5.78
2022-07-26T03:46:23.382Z,6.00
2022-07-26T03:48:50.872Z,5.72
2022-07-26T03:51:18.336Z,5.53
2022-07-26T03:53:46.071Z,7.10
2022-07-26T03:56:28.934Z,9.30
2022-07-26T03:58:59.101Z,6.87
2022-07-26T04:01:27.232Z,6.37
2022-07-26T04:03:54.946Z,9.50
2022-07-26T04:06:23.173Z,8.18
2022-07-26T04:08:50.730Z,7.57
2022-07-26T04:11:18.507Z,6.75
2022-07-26T04:13:46.114Z,6.85
2022-07-26T04:16:14.455Z,6.53
2022-07-26T04:18:42.624Z,7.40
2022-07-26T04:21:10.092Z,8.38
2022-07-26T04:23:37.485Z,6.78
2022-07-26T04:26:05.631Z,8.07
2022-07-26T04:28:33.415Z,8.32
2022-07-26T04:31:00.983Z,8.07
2022-07-26T04:33:28.720Z,11.07
2022-07-26T04:35:56.213Z,6.72
2022-07-26T04:38:23.673Z,11.50
2022-07-26T04:40:51.899Z,10.65
2022-07-26T04:43:19.824Z,7.60
2022-07-26T04:45:47.608Z,8.13
2022-07-26T04:48:16.013Z,9.05
2022-07-26T04:50:43.714Z,13.73
2022-07-26T04:53:11.288Z,10.48
2022-07-26T04:55:39.553Z,10.82
2022-07-26T04:58:07.253Z,12.07
2022-07-26T05:00:51.106Z,12.40
2022-07-26T05:03:25.305Z,12.25
2022-07-26T05:05:52.891Z,12.15
2022-07-26T05:08:20.442Z,12.48
2022-07-26T05:10:53.133Z,12.70
2022-07-26T05:13:29.465Z,9.93
2022-07-26T05:15:59.651Z,9.00
2022-07-26T05:18:27.617Z,10.80
2022-07-26T05:20:57.709Z,13.20
2022-07-26T05:23:25.158Z,10.60
2022-07-26T05:25:52.987Z,11.40
2022-07-26T05:28:20.763Z,12.35
2022-07-26T05:30:48.373Z,9.48
2022-07-26T05:33:16.599Z,10.35
2022-07-26T05:35:44.653Z,8.23
2022-07-26T05:38:12.385Z,8.18
2022-07-26T05:40:39.818Z,8.85
2022-07-26T05:43:07.756Z,14.15
2022-07-26T05:45:35.214Z,7.95
2022-07-26T05:48:02.692Z,8.32
2022-07-26T05:50:30.485Z,9.68
2022-07-26T05:52:58.280Z,10.52
2022-07-26T05:55:25.672Z,9.80
2022-07-26T05:57:53.329Z,8.52
2022-07-26T06:00:21.179Z,7.85
2022-07-26T06:02:49.343Z,9.07
2022-07-26T06:05:17.537Z,9.95
2022-07-26T06:07:44.950Z,7.93
2022-07-26T06:10:13.551Z,10.80
2022-07-26T06:12:41.196Z,18.23
2022-07-26T06:15:15.415Z,14.55
2022-07-26T06:17:43.811Z,10.82
2022-07-26T06:20:11.573Z,12.70
2022-07-26T06:22:39.022Z,11.57
2022-07-26T06:25:07.315Z,12.60
2022-07-26T06:27:34.793Z,9.75
2022-07-26T06:30:02.236Z,9.70
2022-07-26T06:32:29.929Z,10.50
2022-07-26T06:34:57.365Z,9.88
2022-07-26T06:37:24.986Z,12.27
2022-07-26T06:39:53.138Z,12.13
2022-07-26T06:42:20.548Z,9.68
2022-07-26T06:44:48.109Z,12.27
2022-07-26T06:47:15.832Z,9.50
2022-07-26T06:49:44.827Z,9.85
2022-07-26T06:52:12.303Z,10.18
2022-07-26T06:54:40.029Z,11.63
2022-07-26T06:57:07.958Z,10.63
2022-07-26T06:59:35.480Z,9.00
2022-07-26T07:02:04.040Z,10.05
2022-07-26T07:04:33.257Z,10.80
2022-07-26T07:07:06.453Z,9.75
2022-07-26T07:09:35.289Z,9.20
2022-07-26T07:12:09.813Z,10.35
2022-07-26T07:14:39.479Z,10.25
2022-07-26T07:17:13.109Z,6.72
2022-07-26T07:19:42.716Z,8.48
2022-07-26T07:22:12.235Z,11.65
2022-07-26T07:24:40.465Z,11.45
2022-07-26T07:27:08.525Z,7.40
2022-07-26T07:29:36.213Z,13.43
2022-07-26T07:32:03.956Z,7.00
2022-07-26T07:34:31.703Z,9.32
2022-07-26T07:36:59.942Z,6.12
2022-07-26T07:39:34.529Z,11.93
2022-07-26T07:42:06.236Z,7.30
2022-07-26T07:44:33.651Z,10.30
2022-07-26T07:47:01.198Z,9.48
2022-07-26T07:49:28.961Z,5.70
2022-07-26T07:51:56.441Z,8.13
2022-07-26T07:54:23.877Z,7.43
2022-07-26T07:56:55.059Z,15.20
2022-07-26T07:59:23.633Z,7.10
2022-07-26T08:01:51.319Z,10.80
2022-07-26T08:04:19.161Z,9.63
2022-07-26T08:06:50.078Z,7.87
2022-07-26T08:09:19.565Z,7.37
2022-07-26T08:11:51.120Z,9.38
2022-07-26T08:14:19.436Z,13.25
2022-07-26T08:16:47.081Z,10.30
2022-07-26T08:19:15.690Z,8.05
2022-07-26T08:21:46.090Z,6.82
2022-07-26T08:24:14.525Z,5.35
2022-07-26T08:26:42.013Z,10.00
2022-07-26T08:29:10.141Z,8.30
2022-07-26T08:31:37.939Z,7.85
2022-07-26T08:34:05.370Z,9.38
2022-07-26T08:36:33.329Z,8.75
2022-07-26T08:39:01.687Z,8.55
2022-07-26T08:41:29.270Z,8.35
2022-07-26T08:44:05.541Z,8.90
2022-07-26T08:46:36.273Z,6.50
2022-07-26T08:49:06.121Z,8.55
2022-07-26T08:51:34.294Z,8.93
2022-07-26T08:54:05.677Z,7.82
2022-07-26T08:56:35.530Z,7.15
2022-07-26T08:59:05.585Z,8.43
2022-07-26T09:01:33.648Z,6.70
2022-07-26T09:04:31.189Z,9.88
2022-07-26T09:07:05.787Z,8.85
2022-07-26T09:09:38.839Z,7.70
2022-07-26T09:12:18.314Z,9.80
2022-07-26T09:14:47.194Z,7.78
2022-07-26T09:17:16.670Z,8.13
2022-07-26T09:19:45.173Z,10.35
2022-07-26T09:22:16.921Z,7.55
2022-07-26T09:24:46.570Z,6.70
2022-07-26T09:27:16.696Z,7.55
2022-07-26T09:29:48.046Z,8.30
2022-07-26T09:32:20.975Z,7.72
2022-07-26T09:35:44.183Z,11.88
2022-07-26T09:37:59.247Z,9.50
2022-07-26T09:40:34.689Z,11.25
2022-07-26T09:43:05.521Z,8.65
2022-07-26T09:45:36.089Z,8.18
2022-07-26T09:48:04.319Z,8.93
2022-07-26T09:50:33.033Z,12.05
2022-07-26T09:53:10.396Z,7.57
2022-07-26T09:55:45.147Z,11.40
2022-07-26T09:58:14.454Z,9.20
2022-07-26T10:00:43.627Z,12.15
2022-07-26T10:03:12.022Z,9.70
2022-07-26T10:05:39.533Z,11.45
2022-07-26T10:08:08.008Z,9.88
2022-07-26T10:10:40.394Z,12.40
2022-07-26T10:13:08.818Z,10.93
2022-07-26T10:15:43.579Z,12.32
2022-07-26T10:20:48.976Z,12.45
2022-07-26T10:23:35.057Z,12.07
2022-07-26T10:26:04.373Z,14.23
2022-07-26T10:28:33.841Z,12.20
2022-07-26T10:31:26.726Z,11.93
2022-07-26T10:33:55.409Z,13.50
2022-07-26T10:36:25.717Z,9.43
2022-07-26T10:39:12.011Z,11.35
2022-07-26T10:41:44.660Z,10.50
2022-07-26T10:44:23.718Z,14.35
2022-07-26T10:47:10.055Z,12.50
2022-07-26T10:49:40.394Z,11.35
2022-07-26T10:52:12.993Z,11.07
2022-07-26T10:54:59.144Z,15.25
2022-07-26T10:57:27.730Z,13.85
2022-07-26T10:59:57.873Z,9.90
2022-07-26T11:02:32.642Z,13.75
2022-07-26T11:05:15.070Z,12.95
2022-07-26T11:08:10.442Z,11.12
2022-07-26T11:10:39.684Z,12.30
2022-07-26T11:13:12.837Z,13.40
2022-07-26T11:15:45.928Z,10.50
2022-07-26T11:18:28.269Z,12.32
2022-07-26T11:20:57.794Z,11.00
2022-07-26T11:23:33.661Z,11.60
2022-07-26T11:26:15.168Z,11.10
2022-07-26T11:29:06.231Z,12.43
2022-07-26T11:31:55.917Z,10.98
2022-07-26T11:34:35.847Z,9.18
2022-07-26T11:37:04.976Z,10.95
2022-07-26T11:39:34.185Z,10.40
2022-07-26T11:42:04.390Z,9.77
2022-07-26T11:44:32.606Z,11.35
2022-07-26T11:47:01.001Z,10.82
2022-07-26T11:52:25.053Z,10.65
2022-07-26T11:54:53.778Z,11.18
2022-07-26T11:57:22.230Z,11.05
2022-07-26T11:59:51.378Z,10.80
2022-07-26T12:02:20.673Z,12.23
2022-07-26T12:04:48.397Z,10.38
2022-07-26T12:07:18.557Z,11.35
2022-07-26T12:09:51.505Z,10.82
2022-07-26T12:12:31.889Z,10.80
2022-07-26T12:15:05.718Z,10.38
2022-07-26T12:17:35.740Z,12.40
2022-07-26T12:20:17.437Z,12.37
2022-07-26T12:22:57.686Z,12.07
2022-07-26T12:25:29.372Z,14.52
2022-07-26T12:27:57.326Z,11.52
2022-07-26T12:30:25.699Z,11.88
2022-07-26T12:33:02.273Z,9.02
2022-07-26T12:35:35.607Z,11.10
2022-07-26T12:38:03.541Z,11.05
2022-07-26T12:40:40.393Z,9.40
2022-07-26T12:43:08.811Z,10.43
2022-07-26T12:45:36.406Z,9.27
2022-07-26T12:48:10.163Z,9.73
2022-07-26T12:50:37.989Z,10.82
2022-07-26T12:53:07.247Z,12.05
2022-07-26T12:55:35.603Z,10.73
2022-07-26T12:58:03.323Z,11.73
2022-07-26T13:00:30.898Z,13.05
2022-07-26T13:02:58.361Z,11.25
2022-07-26T13:05:26.062Z,10.40
2022-07-26T13:07:54.286Z,8.98
2022-07-26T13:10:33.112Z,10.90
2022-07-26T13:13:02.110Z,8.73
2022-07-26T13:15:37.267Z,11.07
2022-07-26T13:18:07.328Z,13.32
2022-07-26T13:20:37.847Z,10.10
2022-07-26T13:23:06.898Z,10.43
2022-07-26T13:25:39.638Z,8.18
2022-07-26T13:28:08.600Z,7.68
2022-07-26T13:30:37.647Z,8.10
2022-07-26T13:33:05.290Z,10.15
2022-07-26T13:35:32.991Z,7.93
2022-07-26T13:38:00.403Z,6.95
2022-07-26T13:40:31.583Z,9.27
2022-07-26T13:43:00.299Z,8.48
2022-07-26T13:45:29.035Z,7.37
2022-07-26T13:47:58.897Z,10.55
2022-07-26T13:50:28.408Z,8.50
2022-07-26T13:52:56.734Z,11.25
2022-07-26T13:55:25.104Z,9.82
2022-07-26T13:57:56.130Z,8.52
2022-07-26T14:00:27.169Z,8.20
2022-07-26T14:02:56.027Z,8.20
2022-07-26T14:05:24.522Z,8.63
2022-07-26T14:07:52.155Z,8.60
2022-07-26T14:10:20.913Z,8.52
2022-07-26T14:12:48.600Z,9.98
2022-07-26T14:15:21.587Z,11.25
2022-07-26T14:17:52.946Z,7.70
2022-07-26T14:20:21.506Z,12.18
2022-07-26T14:22:53.376Z,8.63
2022-07-26T14:25:25.119Z,9.38
2022-07-26T14:27:54.171Z,10.63
2022-07-26T14:30:22.375Z,10.40
2022-07-26T14:32:49.875Z,10.25
2022-07-26T14:35:17.452Z,10.90
2022-07-26T14:37:46.099Z,9.82
2022-07-26T14:40:15.619Z,10.05
2022-07-26T14:42:43.422Z,11.25
2022-07-26T14:45:11.650Z,12.85
2022-07-26T14:47:39.305Z,10.98
2022-07-26T14:50:08.157Z,9.25
2022-07-26T14:52:40.990Z,9.75
2022-07-26T14:55:09.193Z,11.88
2022-07-26T14:57:39.273Z,11.38
2022-07-26T15:00:10.023Z,13.43
2022-07-26T15:02:43.075Z,10.82
2022-07-26T15:05:12.221Z,10.73
2022-07-26T15:07:40.794Z,10.13
2022-07-26T15:10:10.619Z,10.70
2022-07-26T15:12:38.760Z,10.65
2022-07-26T15:15:08.767Z,10.90
2022-07-26T15:17:36.468Z,10.85
2022-07-26T15:20:05.159Z,12.05
2022-07-26T15:22:32.995Z,14.57
2022-07-26T15:25:00.441Z,11.63
2022-07-26T15:27:27.891Z,13.57
2022-07-26T15:30:01.046Z,11.70
2022-07-26T15:32:31.777Z,12.37
2022-07-26T15:34:59.741Z,12.50
2022-07-26T15:37:27.711Z,11.70
2022-07-26T15:39:55.143Z,12.35
2022-07-26T15:42:23.353Z,11.05
2022-07-26T15:44:50.970Z,10.68
2022-07-26T15:47:36.947Z,11.68
2022-07-26T15:50:08.431Z,11.45
2022-07-26T15:52:42.242Z,11.32
2022-07-26T15:55:11.624Z,10.80
2022-07-26T15:57:39.368Z,12.30
2022-07-26T16:00:11.071Z,12.05
2022-07-26T16:02:40.690Z,9.90
2022-07-26T16:05:09.054Z,13.02
2022-07-26T16:07:36.459Z,13.18
2022-07-26T16:10:04.832Z,11.90
2022-07-26T16:12:33.270Z,12.37
2022-07-26T16:15:00.947Z,12.75
2022-07-26T16:17:28.670Z,12.45
2022-07-26T16:19:56.138Z,13.18
2022-07-26T16:22:23.931Z,12.93
2022-07-26T16:24:51.734Z,12.80
2022-07-26T16:27:19.331Z,12.95
2022-07-26T16:29:51.996Z,12.23
2022-07-26T16:32:21.427Z,13.65
2022-07-26T16:34:49.155Z,14.68
2022-07-26T16:37:16.606Z,13.45
2022-07-26T16:39:44.584Z,14.10
2022-07-26T16:42:12.256Z,16.10
2022-07-26T16:44:39.786Z,15.45
2022-07-26T16:47:07.612Z,15.93
2022-07-26T16:59:39.791Z,16.58
2022-07-26T17:02:09.131Z,17.00
2022-07-26T17:04:36.847Z,18.08
2022-07-26T17:09:52.174Z,17.08
2022-07-26T17:12:19.634Z,18.10
2022-07-26T17:14:47.103Z,17.75
2022-07-26T17:17:14.887Z,18.45
2022-07-26T17:19:42.297Z,18.25
2022-07-26T17:22:09.695Z,16.48
2022-07-26T17:24:37.388Z,16.25
2022-07-26T17:27:05.161Z,16.95
2022-07-26T17:29:33.494Z,17.70
2022-07-26T17:32:01.379Z,16.60
2022-07-26T17:34:28.810Z,17.77
2022-07-26T17:36:58.511Z,18.05
2022-07-26T17:39:40.369Z,17.05
2022-07-26T17:42:14.864Z,17.33
2022-07-26T17:44:42.691Z,17.62
2022-07-26T17:47:28.355Z,17.45
2022-07-26T17:50:13.898Z,16.73
2022-07-26T17:52:47.598Z,17.87
2022-07-26T17:55:15.780Z,15.52
2022-07-26T17:57:43.204Z,16.77
2022-07-26T18:00:11.557Z,16.58
2022-07-26T18:02:39.314Z,16.27
2022-07-26T18:05:07.059Z,15.65
2022-07-26T18:07:34.611Z,15.38
2022-07-26T18:10:02.839Z,14.75
2022-07-26T18:12:31.304Z,16.15
2022-07-26T18:14:58.907Z,19.50
2022-07-26T18:17:26.840Z,18.58
2022-07-26T18:19:54.367Z,19.25
2022-07-26T18:22:23.253Z,19.48
2022-07-26T18:24:51.238Z,19.77
2022-07-26T18:27:19.682Z,17.92
2022-07-26T18:29:47.340Z,19.40
2022-07-26T18:32:15.377Z,18.92
2022-07-26T18:34:51.713Z,20.73
2022-07-26T18:37:20.581Z,20.73
2022-07-26T18:39:52.719Z,19.52
2022-07-26T18:42:23.260Z,20.35
2022-07-26T18:44:50.730Z,22.23
2022-07-26T18:47:18.269Z,20.05
2022-07-26T18:49:46.001Z,21.12
2022-07-26T18:52:13.433Z,20.45
2022-07-26T18:54:40.835Z,24.27
2022-07-26T18:57:08.559Z,21.92
2022-07-26T18:59:36.070Z,21.23
2022-07-26T19:02:04.309Z,22.50
2022-07-26T19:04:32.156Z,21.37
2022-07-26T19:06:59.679Z,22.15
2022-07-26T19:09:27.084Z,20.50
2022-07-26T19:11:55.217Z,21.27
2022-07-26T19:14:22.639Z,21.58
2022-07-26T19:16:50.370Z,22.17
2022-07-26T19:19:18.043Z,26.40
2022-07-26T19:21:47.283Z,21.92
2022-07-26T19:24:14.926Z,20.95
2022-07-26T19:26:42.702Z,20.85
2022-07-26T19:29:10.407Z,21.17
2022-07-26T19:31:40.370Z,20.52
2022-07-26T19:34:08.132Z,21.23
2022-07-26T19:36:35.570Z,21.25
2022-07-26T19:39:04.267Z,28.30
2022-07-26T19:41:31.987Z,21.98
2022-07-26T19:43:59.431Z,22.37
2022-07-26T19:46:26.946Z,20.15
2022-07-26T19:48:55.490Z,22.45
2022-07-26T19:51:23.056Z,22.30
2022-07-26T19:53:50.526Z,21.52
2022-07-26T19:56:18.457Z,23.00
2022-07-26T19:58:46.282Z,21.12
2022-07-26T20:01:14.004Z,24.08
2022-07-26T20:03:41.886Z,20.27
2022-07-26T20:06:09.324Z,20.58
2022-07-26T20:08:36.733Z,20.85
2022-07-26T20:11:04.428Z,21.12
2022-07-26T20:13:31.900Z,22.23
2022-07-26T20:15:59.992Z,21.67
2022-07-26T20:18:28.358Z,21.52
2022-07-26T20:20:56.337Z,24.12
2022-07-26T20:23:24.463Z,23.33
2022-07-26T20:25:52.142Z,23.77
2022-07-26T20:28:19.939Z,21.15
2022-07-26T20:30:48.499Z,21.52
2022-07-26T20:33:16.625Z,21.08
2022-07-26T20:35:44.563Z,21.90
2022-07-26T20:38:12.022Z,21.73
2022-07-26T20:40:40.161Z,19.52
2022-07-26T20:43:07.600Z,19.55
2022-07-26T20:45:35.168Z,22.48
2022-07-26T20:48:03.088Z,18.40
2022-07-26T20:50:30.539Z,21.92
2022-07-26T20:52:58.151Z,19.67
2022-07-26T20:55:25.893Z,19.70
2022-07-26T20:57:53.350Z,18.65
2022-07-26T21:00:20.850Z,20.10
2022-07-26T21:02:48.606Z,18.25
2022-07-26T21:05:16.089Z,19.80
2022-07-26T21:07:55.164Z,17.80
2022-07-26T21:10:29.264Z,16.55
2022-07-26T21:13:00.207Z,16.90
2022-07-26T21:15:29.080Z,17.12
2022-07-26T21:17:57.162Z,18.17
2022-07-26T21:20:24.800Z,17.33
2022-07-26T21:22:52.526Z,17.70
2022-07-26T21:25:20.081Z,16.65
2022-07-26T21:27:47.493Z,17.30
2022-07-26T21:30:15.184Z,16.37
2022-07-26T21:32:42.634Z,16.87
2022-07-26T21:35:10.456Z,16.50
2022-07-26T21:37:39.106Z,16.60
2022-07-26T21:40:09.032Z,16.85
2022-07-26T21:42:36.415Z,15.35
2022-07-26T21:45:05.023Z,14.65
2022-07-26T21:47:33.225Z,14.35
2022-07-26T21:50:00.648Z,13.80
2022-07-26T21:52:28.337Z,13.23
2022-07-26T21:54:55.753Z,16.20
2022-07-26T21:57:23.200Z,13.13
2022-07-26T21:59:50.954Z,14.82
2022-07-26T22:02:19.951Z,14.98
2022-07-26T22:04:49.658Z,13.77
2022-07-26T22:07:17.100Z,15.98
2022-07-26T22:09:44.562Z,14.68
2022-07-26T22:12:12.256Z,17.02
2022-07-26T22:14:39.713Z,15.57
2022-07-26T22:17:07.146Z,14.13
2022-07-26T22:19:34.829Z,16.20
2022-07-26T22:22:04.698Z,15.05
2022-07-26T22:24:32.416Z,15.38
2022-07-26T22:27:00.112Z,14.23
2022-07-26T22:29:28.023Z,15.02
2022-07-26T22:32:07.510Z,14.50
2022-07-26T22:34:34.939Z,15.77
2022-07-26T22:37:02.378Z,14.80
2022-07-26T22:39:30.204Z,15.57
2022-07-26T22:42:15.002Z,14.27
2022-07-26T22:44:43.797Z,16.12
2022-07-26T22:47:11.250Z,14.10
2022-07-26T22:49:38.798Z,16.00
2022-07-26T22:52:06.547Z,16.02
2022-07-26T22:54:33.957Z,12.45
2022-07-26T22:57:01.368Z,13.35
2022-07-26T22:59:29.164Z,14.50
2022-07-26T23:01:57.045Z,12.73
2022-07-26T23:04:24.597Z,14.27
2022-07-26T23:06:52.482Z,13.57
2022-07-26T23:09:22.303Z,13.50
2022-07-26T23:11:49.745Z,15.73
2022-07-26T23:14:17.517Z,11.05
2022-07-26T23:16:45.116Z,13.60
2022-07-26T23:19:13.050Z,10.77
2022-07-26T23:21:40.963Z,10.35
2022-07-26T23:24:08.499Z,10.55
2022-07-26T23:26:36.018Z,10.57
2022-07-26T23:29:04.603Z,9.52
2022-07-26T23:31:32.059Z,10.45
2022-07-26T23:33:59.618Z,9.60
2022-07-26T23:36:28.798Z,9.57
2022-07-26T23:38:58.482Z,10.35
2022-07-26T23:41:26.834Z,8.05
2022-07-26T23:43:55.036Z,10.32
2022-07-26T23:46:23.160Z,7.80
2022-07-26T23:48:51.401Z,8.68
2022-07-26T23:51:19.714Z,10.07
2022-07-26T23:53:47.583Z,9.27
2022-07-26T23:56:15.539Z,8.68
2022-07-26T23:58:43.457Z,9.88
